Time;durP1;ratioP1;P1;durP2;ratioP2;P2;SDS_P1;SDS_P2;PMS_P1;PMS_P2;Temp;Humidity;BMP_temperature;BMP_pressure;BME280_temperature;BME280_humidity;BME280_pressure;Samples;Min_cycle;Max_cycle;Signal;HPM_P1;HPM_P2
2021/09/06 00:00:53;;;;;;;4.37;2.87;;;14.70;99.90;;;;;;5034602;28;20544;-77
2021/09/06 00:03:20;;;;;;;3.87;3.57;;;14.70;99.90;;;;;;5035221;28;20493;-77
2021/09/06 00:05:46;;;;;;;6.20;5.17;;;14.70;99.90;;;;;;5035173;28;20887;-78
2021/09/06 00:08:13;;;;;;;7.83;6.50;;;14.70;99.90;;;;;;5035155;28;20496;-79
2021/09/06 00:10:42;;;;;;;3.23;3.00;;;14.70;99.90;;;;;;5035007;28;20891;-78
2021/09/06 00:13:11;;;;;;;3.13;2.80;;;14.70;99.90;;;;;;5035116;28;20518;-77
2021/09/06 00:15:38;;;;;;;3.53;3.23;;;14.70;99.90;;;;;;5045464;28;20519;-77
2021/09/06 00:18:07;;;;;;;3.60;3.10;;;14.70;99.90;;;;;;5054847;28;20487;-77
2021/09/06 00:20:35;;;;;;;3.17;2.90;;;14.60;99.90;;;;;;5054839;28;21064;-77
2021/09/06 00:23:02;;;;;;;2.80;2.60;;;14.60;99.90;;;;;;5054662;28;20885;-77
2021/09/06 00:25:29;;;;;;;3.07;2.83;;;14.70;99.90;;;;;;5054819;28;20484;-77
2021/09/06 00:27:56;;;;;;;4.60;3.90;;;14.70;99.90;;;;;;5054901;28;20498;-77
2021/09/06 00:30:22;;;;;;;4.03;3.17;;;14.70;99.90;;;;;;5054695;28;20495;-77
2021/09/06 00:32:49;;;;;;;3.40;2.97;;;14.70;99.90;;;;;;5054548;28;20883;-77
2021/09/06 00:35:17;;;;;;;2.93;2.63;;;14.60;99.90;;;;;;5052975;28;20527;-77
2021/09/06 00:37:43;;;;;;;7.07;2.93;;;14.60;99.90;;;;;;5034322;28;20500;-77
2021/09/06 00:40:11;;;;;;;2.83;2.60;;;14.60;99.90;;;;;;5034734;28;20543;-77
2021/09/06 00:42:37;;;;;;;3.00;2.80;;;14.60;99.90;;;;;;5044644;28;20535;-78
2021/09/06 00:45:05;;;;;;;3.37;3.00;;;14.60;99.90;;;;;;5054462;28;20523;-77
2021/09/06 00:47:34;;;;;;;3.40;2.50;;;14.70;99.90;;;;;;5054480;28;20456;-78
2021/09/06 00:50:02;;;;;;;3.17;2.80;;;14.60;99.90;;;;;;5054440;28;20449;-78
2021/09/06 00:52:30;;;;;;;3.37;3.07;;;14.60;99.90;;;;;;5054132;28;20459;-78
2021/09/06 00:54:57;;;;;;;2.83;2.63;;;14.60;99.90;;;;;;5053964;28;20484;-78
2021/09/06 00:57:24;;;;;;;5.37;3.10;;;14.60;99.90;;;;;;5054111;28;20535;-78
2021/09/06 00:59:50;;;;;;;3.50;3.10;;;14.50;99.90;;;;;;5054137;28;20476;-78
2021/09/06 01:02:17;;;;;;;4.00;3.00;;;14.50;99.90;;;;;;5053911;28;21003;-78
2021/09/06 01:04:44;;;;;;;2.90;2.70;;;14.50;99.90;;;;;;5054216;28;20476;-78
2021/09/06 01:07:10;;;;;;;4.10;3.33;;;14.40;99.90;;;;;;5054107;28;20811;-78
2021/09/06 01:09:39;;;;;;;3.03;2.83;;;14.40;99.90;;;;;;5053968;28;20552;-78
2021/09/06 01:12:07;;;;;;;4.40;2.50;;;14.40;99.90;;;;;;5053423;28;20539;-78
2021/09/06 01:14:33;;;;;;;5.20;2.93;;;14.40;99.90;;;;;;5053701;28;20507;-78
2021/09/06 01:17:01;;;;;;;3.57;3.17;;;14.30;99.90;;;;;;5053555;28;20468;-77
2021/09/06 01:19:27;;;;;;;3.27;2.97;;;14.30;99.90;;;;;;5053622;28;20464;-77
2021/09/06 01:21:54;;;;;;;4.07;3.70;;;14.20;99.90;;;;;;5053693;28;20468;-77
2021/09/06 01:24:21;;;;;;;4.90;3.20;;;14.20;99.90;;;;;;5053592;28;20515;-77
2021/09/06 01:26:50;;;;;;;3.50;3.20;;;14.20;99.90;;;;;;5053739;28;20491;-77
2021/09/06 01:29:17;;;;;;;3.50;3.20;;;14.20;99.90;;;;;;5053329;28;20490;-77
2021/09/06 01:31:44;;;;;;;3.57;3.27;;;14.20;99.90;;;;;;5053640;28;20440;-77
2021/09/06 01:34:11;;;;;;;3.87;3.30;;;14.20;99.90;;;;;;5053469;28;20512;-77
2021/09/06 01:36:38;;;;;;;3.30;3.00;;;14.10;99.90;;;;;;5041727;28;20499;-77
2021/09/06 01:39:05;;;;;;;7.83;3.17;;;14.10;99.90;;;;;;5033328;28;20485;-77
2021/09/06 01:41:32;;;;;;;3.40;3.10;;;14.00;99.90;;;;;;5033483;28;20548;-76
2021/09/06 01:44:00;;;;;;;3.50;3.20;;;14.00;99.90;;;;;;5033360;28;20515;-76
2021/09/06 01:46:28;;;;;;;6.77;3.33;;;13.90;99.90;;;;;;5033712;28;20536;-77
2021/09/06 01:48:57;;;;;;;3.90;3.10;;;13.90;99.90;;;;;;5033408;28;20445;-76
2021/09/06 01:51:24;;;;;;;3.80;3.50;;;13.80;99.90;;;;;;5033331;28;20794;-77
2021/09/06 01:53:50;;;;;;;3.13;2.93;;;13.80;99.90;;;;;;5033086;28;20453;-76
2021/09/06 01:56:17;;;;;;;3.20;3.00;;;13.80;99.90;;;;;;5033224;28;20453;-78
2021/09/06 01:58:44;;;;;;;5.27;3.37;;;13.80;99.90;;;;;;5033018;28;20986;-78
2021/09/06 02:01:12;;;;;;;3.60;3.37;;;13.70;99.90;;;;;;5033188;28;20536;-77
2021/09/06 02:03:39;;;;;;;3.70;3.40;;;13.70;99.90;;;;;;5033157;28;20526;-77
2021/09/06 02:06:05;;;;;;;4.20;3.47;;;13.70;99.90;;;;;;5033017;28;21027;-77
2021/09/06 02:08:32;;;;;;;4.90;3.57;;;13.70;99.90;;;;;;5033189;28;20484;-77
2021/09/06 02:10:59;;;;;;;4.50;3.43;;;13.70;99.90;;;;;;5032858;28;20491;-77
2021/09/06 02:13:25;;;;;;;3.90;3.50;;;13.60;99.90;;;;;;5033066;28;20549;-78
2021/09/06 02:15:52;;;;;;;3.77;3.40;;;13.60;99.90;;;;;;5045314;28;20519;-77
2021/09/06 02:18:19;;;;;;;3.37;3.07;;;13.50;99.90;;;;;;5052732;28;20456;-78
2021/09/06 02:20:46;;;;;;;6.70;3.60;;;13.50;99.90;;;;;;5052751;28;20541;-77
2021/09/06 02:23:13;;;;;;;3.47;3.20;;;13.40;99.90;;;;;;5051874;28;20484;-77
2021/09/06 02:25:39;;;;;;;4.93;3.30;;;13.40;99.90;;;;;;5052547;28;20548;-77
2021/09/06 02:28:06;;;;;;;5.67;4.03;;;13.40;99.90;;;;;;5052753;28;20444;-78
2021/09/06 02:30:32;;;;;;;4.20;3.80;;;13.40;99.90;;;;;;5052774;28;20483;-77
2021/09/06 02:32:59;;;;;;;3.80;3.47;;;13.40;99.90;;;;;;5052573;28;20480;-78
2021/09/06 02:35:27;;;;;;;3.53;3.23;;;13.40;99.90;;;;;;5050781;28;20540;-77
2021/09/06 02:37:54;;;;;;;3.87;3.53;;;13.30;99.90;;;;;;5032508;28;20456;-77
2021/09/06 02:40:20;;;;;;;4.27;3.57;;;13.30;99.90;;;;;;5032913;28;20545;-77
2021/09/06 02:42:47;;;;;;;4.03;3.63;;;13.30;99.90;;;;;;5032752;28;20521;-78
2021/09/06 02:45:14;;;;;;;3.63;3.30;;;13.30;99.90;;;;;;5032464;28;20504;-78
2021/09/06 02:47:44;;;;;;;3.90;3.50;;;13.20;99.90;;;;;;5032534;28;21015;-78
2021/09/06 02:50:11;;;;;;;4.40;4.10;;;13.20;99.90;;;;;;5032475;28;20484;-77
2021/09/06 02:52:39;;;;;;;4.30;3.90;;;13.20;99.90;;;;;;5032530;28;20536;-77
2021/09/06 02:55:07;;;;;;;3.60;3.30;;;13.10;99.90;;;;;;5032225;28;20571;-77
2021/09/06 02:57:33;;;;;;;5.23;4.63;;;13.10;99.90;;;;;;5032840;28;20477;-77
2021/09/06 03:00:00;;;;;;;4.63;4.23;;;13.10;99.90;;;;;;5032453;28;20477;-77
2021/09/06 03:02:28;;;;;;;5.17;4.67;;;13.00;99.90;;;;;;5032432;28;20972;-77
2021/09/06 03:04:55;;;;;;;5.13;4.40;;;13.00;99.90;;;;;;5032296;28;20510;-77
2021/09/06 03:07:21;;;;;;;3.93;3.60;;;12.90;99.90;;;;;;5032446;28;20535;-78
2021/09/06 03:09:49;;;;;;;5.80;3.93;;;12.90;99.90;;;;;;5032438;28;20488;-78
2021/09/06 03:12:16;;;;;;;5.60;4.50;;;12.90;99.90;;;;;;5032569;28;20561;-78
2021/09/06 03:14:42;;;;;;;3.90;3.53;;;12.90;99.90;;;;;;5034986;28;20508;-78
2021/09/06 03:17:09;;;;;;;4.27;3.67;;;12.90;99.90;;;;;;5052342;28;20927;-78
2021/09/06 03:19:35;;;;;;;4.30;3.90;;;12.80;99.90;;;;;;5052074;28;20484;-77
2021/09/06 03:22:02;;;;;;;4.63;4.23;;;12.80;99.90;;;;;;5052458;28;20487;-77
2021/09/06 03:24:28;;;;;;;6.73;3.97;;;12.80;99.90;;;;;;5052099;28;20484;-77
2021/09/06 03:26:56;;;;;;;4.23;3.70;;;12.80;99.90;;;;;;5052276;28;20989;-77
2021/09/06 03:29:23;;;;;;;4.87;4.37;;;12.80;99.90;;;;;;5052050;28;20506;-77
2021/09/06 03:31:52;;;;;;;5.80;3.67;;;12.80;99.90;;;;;;5052049;28;20444;-77
2021/09/06 03:34:19;;;;;;;4.57;4.03;;;12.80;99.90;;;;;;5053717;28;20884;-78
2021/09/06 03:36:45;;;;;;;4.53;3.90;;;12.80;99.90;;;;;;5043209;28;20879;-77
2021/09/06 03:39:12;;;;;;;5.33;4.40;;;12.70;99.90;;;;;;5035698;28;20869;-78
2021/09/06 03:41:38;;;;;;;4.80;4.13;;;12.70;99.90;;;;;;5041307;28;20491;-78
2021/09/06 03:44:06;;;;;;;4.53;4.13;;;12.70;99.90;;;;;;5055292;28;20916;-78
2021/09/06 03:46:33;;;;;;;4.23;3.83;;;12.70;99.90;;;;;;5055493;28;20491;-78
2021/09/06 03:48:59;;;;;;;5.30;4.07;;;12.70;99.90;;;;;;5055822;28;20543;-78
2021/09/06 03:51:26;;;;;;;4.37;4.07;;;12.60;99.90;;;;;;5055573;28;20531;-78
2021/09/06 03:53:53;;;;;;;5.17;4.77;;;12.60;99.90;;;;;;5055460;28;20456;-78
2021/09/06 03:56:19;;;;;;;4.77;3.80;;;12.60;99.90;;;;;;5055321;28;20516;-78
2021/09/06 03:58:46;;;;;;;4.23;3.47;;;12.60;99.90;;;;;;5055295;28;20484;-78
2021/09/06 04:01:13;;;;;;;4.53;4.13;;;12.60;99.90;;;;;;5055365;28;20452;-78
2021/09/06 04:03:41;;;;;;;3.77;3.40;;;12.50;99.90;;;;;;5055344;28;20460;-77
2021/09/06 04:06:07;;;;;;;4.47;4.03;;;12.50;99.90;;;;;;5055030;28;20452;-77
2021/09/06 04:08:34;;;;;;;3.97;3.63;;;12.50;99.90;;;;;;5055271;28;20539;-77
2021/09/06 04:11:00;;;;;;;4.30;3.90;;;12.50;99.90;;;;;;5054964;28;20444;-77
2021/09/06 04:13:27;;;;;;;4.23;3.80;;;12.50;99.90;;;;;;5055152;28;20526;-77
2021/09/06 04:15:54;;;;;;;6.83;4.00;;;12.50;99.90;;;;;;5054800;28;20874;-77
2021/09/06 04:18:21;;;;;;;4.73;4.33;;;12.50;99.90;;;;;;5055027;28;20508;-77
2021/09/06 04:20:49;;;;;;;4.40;4.00;;;12.50;99.90;;;;;;5055195;28;20484;-77
2021/09/06 04:23:16;;;;;;;4.50;4.10;;;12.50;99.90;;;;;;5055079;28;20448;-77
2021/09/06 04:25:42;;;;;;;4.63;4.17;;;12.50;99.90;;;;;;5054651;28;20503;-77
2021/09/06 04:28:09;;;;;;;7.17;4.13;;;12.40;99.90;;;;;;5054872;28;20444;-78
2021/09/06 04:30:35;;;;;;;5.57;4.30;;;12.40;99.90;;;;;;5054596;28;20487;-77
2021/09/06 04:33:02;;;;;;;4.73;4.00;;;12.40;99.90;;;;;;5055020;28;20486;-77
2021/09/06 04:35:30;;;;;;;4.80;3.63;;;12.40;99.90;;;;;;5052580;28;20503;-77
2021/09/06 04:37:56;;;;;;;4.23;3.83;;;12.40;99.90;;;;;;5034599;28;21019;-77
2021/09/06 04:40:23;;;;;;;3.50;3.20;;;12.40;99.90;;;;;;5034624;28;20524;-77
2021/09/06 04:42:50;;;;;;;4.50;4.10;;;12.40;99.90;;;;;;5034531;28;20544;-77
2021/09/06 04:45:17;;;;;;;5.30;4.90;;;12.40;99.90;;;;;;5033485;28;20528;-77
2021/09/06 04:47:44;;;;;;;4.13;3.83;;;12.40;99.90;;;;;;5034626;28;20445;-77
2021/09/06 04:50:11;;;;;;;6.40;4.03;;;12.40;99.90;;;;;;5034422;28;20445;-77
2021/09/06 04:52:39;;;;;;;4.43;4.03;;;12.40;99.90;;;;;;5034452;28;20539;-78
2021/09/06 04:55:06;;;;;;;4.70;4.23;;;12.40;99.90;;;;;;5034110;28;20513;-78
2021/09/06 04:57:33;;;;;;;4.00;3.70;;;12.40;99.90;;;;;;5034194;28;20449;-78
2021/09/06 05:00:00;;;;;;;5.87;3.70;;;12.40;99.90;;;;;;5034247;28;20495;-77
2021/09/06 05:02:26;;;;;;;5.13;4.63;;;12.50;99.90;;;;;;5034253;28;20488;-78
2021/09/06 05:04:53;;;;;;;5.13;4.73;;;12.50;99.90;;;;;;5033851;28;20453;-79
2021/09/06 05:07:19;;;;;;;5.27;3.70;;;12.50;99.90;;;;;;5034123;28;20472;-79
2021/09/06 05:09:47;;;;;;;4.63;4.23;;;12.50;99.90;;;;;;5033924;28;20540;-78
2021/09/06 05:12:14;;;;;;;4.70;3.83;;;12.60;99.90;;;;;;5033829;28;20492;-79
2021/09/06 05:14:40;;;;;;;5.40;4.13;;;12.60;99.90;;;;;;5036165;28;21016;-78
2021/09/06 05:17:07;;;;;;;4.47;4.07;;;12.70;99.90;;;;;;5052851;28;20519;-77
2021/09/06 05:19:33;;;;;;;4.53;4.10;;;12.70;99.90;;;;;;5051274;28;20539;-77
2021/09/06 05:22:00;;;;;;;5.90;4.13;;;12.70;99.90;;;;;;5052942;28;20861;-77
2021/09/06 05:24:26;;;;;;;7.93;4.37;;;12.80;99.90;;;;;;5053269;28;20433;-77
2021/09/06 05:26:54;;;;;;;4.70;3.73;;;12.80;99.90;;;;;;5053011;28;20444;-77
2021/09/06 05:29:21;;;;;;;5.87;4.00;;;12.90;99.90;;;;;;5053561;28;20476;-78
2021/09/06 05:31:47;;;;;;;7.30;4.67;;;12.90;99.90;;;;;;5053535;28;20535;-78
2021/09/06 05:34:14;;;;;;;4.93;4.40;;;13.00;99.90;;;;;;5053510;28;20819;-79
2021/09/06 05:36:40;;;;;;;4.70;4.30;;;13.10;99.90;;;;;;5041241;28;20539;-78
2021/09/06 05:39:07;;;;;;;5.03;4.60;;;13.20;99.90;;;;;;5036937;28;20480;-80
2021/09/06 05:41:33;;;;;;;6.63;4.23;;;13.30;99.90;;;;;;5052909;28;20476;-80
2021/09/06 05:44:04;;;;;;;4.63;4.00;;;13.40;99.90;;;;;;5052666;28;20567;-79
2021/09/06 05:46:31;;;;;;;4.47;4.07;;;13.50;99.90;;;;;;5052824;28;20494;-79
2021/09/06 05:48:58;;;;;;;4.40;4.00;;;13.60;99.90;;;;;;5052757;28;20452;-79
2021/09/06 05:51:25;;;;;;;4.27;3.87;;;13.70;99.90;;;;;;5052580;28;20495;-77
2021/09/06 05:53:51;;;;;;;3.97;3.60;;;13.80;99.90;;;;;;5053120;28;20803;-79
2021/09/06 05:56:20;;;;;;;7.50;4.20;;;14.00;99.90;;;;;;5053028;28;21040;-78
2021/09/06 05:58:46;;;;;;;5.23;4.80;;;14.10;99.90;;;;;;5053116;28;20453;-78
2021/09/06 06:01:14;;;;;;;4.03;3.60;;;14.20;99.90;;;;;;5053063;28;20535;-78
2021/09/06 06:03:41;;;;;;;4.20;3.40;;;14.30;99.90;;;;;;5052763;28;20888;-78
2021/09/06 06:06:08;;;;;;;4.80;3.77;;;14.40;99.90;;;;;;5052076;28;20495;-78
2021/09/06 06:08:34;;;;;;;6.70;4.50;;;14.50;99.90;;;;;;5052494;28;20758;-78
2021/09/06 06:11:01;;;;;;;5.20;4.70;;;14.50;99.90;;;;;;5052882;28;20491;-79
2021/09/06 06:13:28;;;;;;;3.77;3.47;;;14.60;99.90;;;;;;5052855;28;20459;-79
2021/09/06 06:15:54;;;;;;;4.63;4.23;;;14.70;99.90;;;;;;5052498;28;20983;-79
2021/09/06 06:18:22;;;;;;;4.40;4.00;;;14.80;99.90;;;;;;5052945;28;20888;-78
2021/09/06 06:20:49;;;;;;;4.83;4.43;;;15.00;99.90;;;;;;5052674;28;20547;-78
2021/09/06 06:23:15;;;;;;;5.00;4.60;;;15.20;99.90;;;;;;5053338;28;20543;-78
2021/09/06 06:25:42;;;;;;;4.50;4.10;;;15.30;99.90;;;;;;5052877;28;20452;-78
2021/09/06 06:28:08;;;;;;;6.83;4.07;;;15.50;99.90;;;;;;5052857;28;20543;-78
2021/09/06 06:30:35;;;;;;;3.90;3.60;;;15.60;99.90;;;;;;5052744;28;20982;-79
2021/09/06 06:33:02;;;;;;;3.93;3.40;;;15.80;99.90;;;;;;5052825;28;20815;-79
2021/09/06 06:35:30;;;;;;;3.90;3.50;;;16.00;99.90;;;;;;5050391;28;20955;-79
2021/09/06 06:37:56;;;;;;;3.90;3.50;;;16.10;99.90;;;;;;5032894;28;20488;-79
2021/09/06 06:40:23;;;;;;;5.93;4.00;;;16.20;99.90;;;;;;5032804;28;20544;-79
2021/09/06 06:42:49;;;;;;;4.13;3.80;;;16.40;99.90;;;;;;5032832;28;20890;-79
2021/09/06 06:45:16;;;;;;;3.60;3.30;;;16.50;99.90;;;;;;5032481;28;20567;-79
2021/09/06 06:47:42;;;;;;;4.60;3.80;;;16.60;99.90;;;;;;5032508;28;20537;-79
2021/09/06 06:50:10;;;;;;;4.10;3.77;;;16.80;99.90;;;;;;5032562;28;20508;-79
2021/09/06 06:52:40;;;;;;;6.10;3.53;;;17.10;99.90;;;;;;5032620;28;20528;-79
2021/09/06 06:55:08;;;;;;;3.30;3.00;;;17.40;99.90;;;;;;5032821;28;20485;-79
2021/09/06 06:57:34;;;;;;;4.43;4.10;;;17.60;99.90;;;;;;5032455;28;20568;-79
2021/09/06 07:00:01;;;;;;;4.80;3.50;;;17.80;99.90;;;;;;5032576;28;20500;-79
2021/09/06 07:02:27;;;;;;;4.87;3.50;;;18.00;99.90;;;;;;5032373;28;20484;-79
2021/09/06 07:04:54;;;;;;;3.93;3.63;;;18.20;99.90;;;;;;5032864;28;20487;-79
2021/09/06 07:07:21;;;;;;;6.70;3.90;;;18.30;99.90;;;;;;5032617;28;20560;-79
2021/09/06 07:09:49;;;;;;;6.00;4.03;;;18.40;99.90;;;;;;5035370;28;20488;-79
2021/09/06 07:12:15;;;;;;;5.53;4.00;;;18.60;99.90;;;;;;5036183;28;20995;-79
2021/09/06 07:14:42;;;;;;;4.83;3.53;;;18.70;99.90;;;;;;5038941;28;20535;-78
2021/09/06 07:17:08;;;;;;;5.03;4.60;;;18.70;99.90;;;;;;5055733;28;20508;-78
2021/09/06 07:19:35;;;;;;;5.80;4.67;;;18.90;99.90;;;;;;5056155;28;20575;-79
2021/09/06 07:22:01;;;;;;;3.90;3.20;;;18.90;99.90;;;;;;5055841;28;20947;-79
2021/09/06 07:24:28;;;;;;;3.97;3.60;;;19.00;99.90;;;;;;5056107;28;20510;-79
2021/09/06 07:26:56;;;;;;;3.83;3.43;;;19.10;99.90;;;;;;5055938;28;20510;-78
2021/09/06 07:29:22;;;;;;;4.07;3.67;;;19.10;99.90;;;;;;5055913;28;20963;-79
2021/09/06 07:31:49;;;;;;;5.80;4.10;;;19.10;99.90;;;;;;5055721;28;20538;-79
2021/09/06 07:34:15;;;;;;;5.73;3.90;;;19.20;99.90;;;;;;5056015;28;20484;-79
2021/09/06 07:36:42;;;;;;;4.20;3.47;;;19.30;99.90;;;;;;5043436;28;20919;-79
2021/09/06 07:39:10;;;;;;;4.23;3.37;;;19.30;99.90;;;;;;5035987;28;20528;-78
2021/09/06 07:41:37;;;;;;;3.73;3.43;;;19.30;99.90;;;;;;5035705;28;20496;-79
2021/09/06 07:44:05;;;;;;;9.27;3.23;;;19.40;99.90;;;;;;5035609;28;20568;-79
2021/09/06 07:46:32;;;;;;;3.27;2.97;;;19.30;99.90;;;;;;5035491;28;20805;-79
2021/09/06 07:48:58;;;;;;;4.10;3.47;;;19.40;99.90;;;;;;5035821;28;20543;-79
2021/09/06 07:51:25;;;;;;;4.07;3.73;;;19.40;99.90;;;;;;5035621;28;20514;-79
2021/09/06 07:53:51;;;;;;;3.33;2.97;;;19.40;99.90;;;;;;5035570;28;20458;-79
2021/09/06 07:56:18;;;;;;;5.07;3.83;;;19.40;99.90;;;;;;5035386;28;20559;-79
2021/09/06 07:58:44;;;;;;;5.07;4.67;;;19.40;99.90;;;;;;5035317;28;20453;-79
2021/09/06 08:01:12;;;;;;;9.90;8.90;;;19.40;99.90;;;;;;5035234;28;20994;-78
2021/09/06 08:03:39;;;;;;;6.07;5.27;;;19.40;99.90;;;;;;5035313;28;20477;-80
2021/09/06 08:06:05;;;;;;;6.80;4.43;;;19.30;99.90;;;;;;5033942;28;20544;-79
2021/09/06 08:08:32;;;;;;;3.93;3.63;;;19.20;99.90;;;;;;5048332;28;20530;-79
2021/09/06 08:10:58;;;;;;;4.30;4.00;;;19.10;99.90;;;;;;5054588;28;20539;-80
2021/09/06 08:13:25;;;;;;;4.47;3.90;;;19.10;99.90;;;;;;5054211;28;20998;-79
2021/09/06 08:15:51;;;;;;;4.57;3.70;;;19.00;99.90;;;;;;5054495;28;20547;-79
2021/09/06 08:18:19;;;;;;;5.70;3.43;;;19.00;99.90;;;;;;5054795;28;20449;-79
2021/09/06 08:20:46;;;;;;;4.30;4.00;;;19.00;99.90;;;;;;5053473;28;20476;-78
2021/09/06 08:23:12;;;;;;;5.50;3.93;;;18.90;99.90;;;;;;5054373;28;20480;-80
2021/09/06 08:25:39;;;;;;;5.30;3.70;;;18.80;99.90;;;;;;5054504;28;20487;-79
2021/09/06 08:28:06;;;;;;;7.40;4.23;;;18.80;99.90;;;;;;5054173;28;20883;-79
2021/09/06 08:30:32;;;;;;;4.37;3.97;;;18.70;99.90;;;;;;5054515;28;20440;-78
2021/09/06 08:32:59;;;;;;;5.90;4.57;;;18.70;99.90;;;;;;5054059;28;20541;-79
2021/09/06 08:35:27;;;;;;;5.73;4.50;;;18.70;99.90;;;;;;5052692;28;20540;-79
2021/09/06 08:37:54;;;;;;;7.53;4.70;;;18.70;99.90;;;;;;5044727;28;20502;-79
2021/09/06 08:40:20;;;;;;;8.07;7.00;;;18.70;99.90;;;;;;5054115;28;20551;-80
2021/09/06 08:42:47;;;;;;;8.83;7.50;;;18.70;99.90;;;;;;5053624;28;20483;-79
2021/09/06 08:45:14;;;;;;;8.60;5.13;;;18.70;99.90;;;;;;5053972;28;20476;-79
2021/09/06 08:47:41;;;;;;;5.73;5.17;;;18.70;99.90;;;;;;5053050;28;20491;-79
2021/09/06 08:50:11;;;;;;;7.60;6.20;;;18.70;99.90;;;;;;5053862;28;20444;-79
2021/09/06 08:52:39;;;;;;;6.30;5.33;;;18.70;99.90;;;;;;5053815;28;20480;-79
2021/09/06 08:55:06;;;;;;;7.40;4.80;;;18.60;99.90;;;;;;5053585;28;20513;-79
2021/09/06 08:57:33;;;;;;;5.77;4.57;;;18.60;99.90;;;;;;5053618;28;20476;-79
2021/09/06 09:00:03;;;;;;;5.50;4.33;;;18.50;99.90;;;;;;5053789;28;20448;-79
2021/09/06 09:02:30;;;;;;;7.27;5.73;;;18.50;99.90;;;;;;5053310;28;20448;-79
2021/09/06 09:05:00;;;;;;;8.93;5.50;;;18.60;99.90;;;;;;5053682;28;20453;-79
2021/09/06 09:07:28;;;;;;;7.43;5.17;;;18.60;99.90;;;;;;5037334;28;20540;-79
2021/09/06 09:09:56;;;;;;;5.67;4.83;;;18.60;99.90;;;;;;5053476;28;20483;-79
2021/09/06 09:12:25;;;;;;;4.60;4.20;;;18.50;99.90;;;;;;5053492;28;20492;-79
2021/09/06 09:14:53;;;;;;;4.80;4.40;;;18.50;99.90;;;;;;5053296;28;20453;-79
2021/09/06 09:17:20;;;;;;;6.07;5.57;;;18.50;99.90;;;;;;5053199;28;20480;-79
2021/09/06 09:19:47;;;;;;;5.90;5.30;;;18.50;99.90;;;;;;5053469;28;20536;-79
2021/09/06 09:22:17;;;;;;;10.57;6.23;;;18.60;99.90;;;;;;5052925;28;20489;-79
2021/09/06 09:24:57;;;;;;;6.63;5.83;;;18.60;99.90;;;;;;5053363;28;20530;-79
2021/09/06 09:27:31;;;;;;;6.60;6.00;;;18.60;99.90;;;;;;5053508;28;20760;-79
2021/09/06 09:29:58;;;;;;;10.80;7.40;;;18.60;99.90;;;;;;5053206;28;20935;-79
2021/09/06 09:32:25;;;;;;;7.53;6.63;;;18.70;99.90;;;;;;5052888;28;20445;-79
2021/09/06 09:34:52;;;;;;;8.00;7.17;;;18.70;99.90;;;;;;5052834;28;20773;-79
2021/09/06 09:37:25;;;;;;;7.77;7.07;;;18.70;99.90;;;;;;5038182;28;20530;-79
2021/09/06 09:39:54;;;;;;;8.77;7.43;;;18.70;99.90;;;;;;5053079;28;20452;-79
2021/09/06 09:42:23;;;;;;;8.03;7.17;;;18.80;99.90;;;;;;5052893;28;20445;-79
2021/09/06 09:44:51;;;;;;;7.53;6.60;;;18.80;99.90;;;;;;5052565;28;20582;-79
2021/09/06 09:47:19;;;;;;;7.07;6.13;;;18.80;99.90;;;;;;5052623;28;20488;-79
2021/09/06 09:49:48;;;;;;;9.00;6.10;;;18.80;99.90;;;;;;5052927;28;20444;-79
2021/09/06 09:52:15;;;;;;;6.33;5.73;;;18.90;99.90;;;;;;5052970;28;20494;-79
2021/09/06 09:54:41;;;;;;;8.70;6.60;;;18.90;99.90;;;;;;5052732;28;20532;-79
2021/09/06 09:57:08;;;;;;;8.73;6.87;;;19.00;99.90;;;;;;5052617;28;20506;-79
2021/09/06 09:59:36;;;;;;;8.60;6.97;;;19.00;99.90;;;;;;5052634;28;20440;-79
2021/09/06 10:02:07;;;;;;;6.67;5.97;;;19.00;99.90;;;;;;5052842;28;20564;-79
2021/09/06 10:04:36;;;;;;;7.80;7.00;;;19.00;99.90;;;;;;5052719;28;20540;-79
2021/09/06 10:07:05;;;;;;;7.60;6.90;;;19.10;99.90;;;;;;5052202;28;20452;-80
2021/09/06 10:09:41;;;;;;;7.00;6.20;;;19.10;99.90;;;;;;5052247;28;20448;-79
2021/09/06 10:12:09;;;;;;;9.30;7.13;;;19.10;99.90;;;;;;5052384;28;20955;-79
2021/09/06 10:14:48;;;;;;;8.30;7.13;;;19.20;99.90;;;;;;5052509;28;20527;-80
2021/09/06 10:17:14;;;;;;;7.90;6.67;;;19.30;99.90;;;;;;5052118;28;20503;-79
2021/09/06 10:19:43;;;;;;;7.23;6.53;;;19.30;99.90;;;;;;5051972;28;20503;-79
2021/09/06 10:22:20;;;;;;;9.70;7.60;;;19.40;99.90;;;;;;5052081;28;20475;-79
2021/09/06 10:24:54;;;;;;;10.63;8.33;;;19.50;99.90;;;;;;5052097;28;20514;-79
2021/09/06 10:27:21;;;;;;;8.07;7.27;;;19.50;99.90;;;;;;5051995;28;20532;-80
2021/09/06 10:30:00;;;;;;;7.70;6.83;;;19.50;99.90;;;;;;5052168;28;20840;-79
2021/09/06 10:32:35;;;;;;;7.00;6.07;;;19.50;99.90;;;;;;5052499;28;20523;-79
2021/09/06 10:35:03;;;;;;;11.73;7.20;;;19.60;99.90;;;;;;5052155;28;20471;-79
2021/09/06 10:37:34;;;;;;;6.90;6.10;;;19.60;99.90;;;;;;5036044;28;21017;-80
2021/09/06 10:40:01;;;;;;;13.30;10.97;;;19.70;99.90;;;;;;5052199;28;20445;-79
2021/09/06 10:42:35;;;;;;;9.13;8.23;;;19.70;99.90;;;;;;5052553;28;20581;-78
2021/09/06 10:45:05;;;;;;;9.53;7.07;;;19.70;99.90;;;;;;5055210;28;21070;-79
2021/09/06 10:47:36;;;;;;;9.60;7.07;;;19.80;99.90;;;;;;5040341;28;20503;-78
2021/09/06 10:50:12;;;;;;;8.00;5.60;;;19.80;99.90;;;;;;5056356;28;20448;-79
2021/09/06 10:52:41;;;;;;;9.70;7.53;;;19.80;99.90;;;;;;5056413;28;20520;-78
2021/09/06 10:55:08;;;;;;;8.60;7.27;;;19.90;99.90;;;;;;5056018;28;21058;-79
2021/09/06 10:57:37;;;;;;;8.80;6.70;;;19.90;99.90;;;;;;5056025;28;20557;-78
2021/09/06 11:00:07;;;;;;;7.40;6.20;;;19.90;99.90;;;;;;5055933;28;20444;-79
2021/09/06 11:02:34;;;;;;;10.77;7.50;;;20.00;99.90;;;;;;5055920;28;20502;-79
2021/09/06 11:05:00;;;;;;;9.40;7.30;;;20.00;99.90;;;;;;5055981;28;20487;-79
2021/09/06 11:07:27;;;;;;;9.10;7.13;;;20.10;99.90;;;;;;5055840;28;21026;-79
2021/09/06 11:09:53;;;;;;;7.90;6.77;;;20.20;99.90;;;;;;5056197;28;20440;-78
2021/09/06 11:12:20;;;;;;;8.27;7.30;;;20.30;99.90;;;;;;5056020;28;20538;-78
2021/09/06 11:14:48;;;;;;;10.87;8.43;;;20.30;99.90;;;;;;5055449;28;20487;-79
2021/09/06 11:17:21;;;;;;;8.67;7.80;;;20.40;99.90;;;;;;5055841;28;20498;-79
2021/09/06 11:19:51;;;;;;;7.90;7.00;;;20.50;99.90;;;;;;5055904;28;20491;-78
2021/09/06 11:22:21;;;;;;;7.40;6.70;;;20.60;99.90;;;;;;5056141;28;20498;-78
2021/09/06 11:24:49;;;;;;;9.80;7.07;;;20.70;99.90;;;;;;5055713;28;20479;-78
2021/09/06 11:27:27;;;;;;;7.80;7.00;;;20.80;99.90;;;;;;5055312;28;20455;-79
2021/09/06 11:29:54;;;;;;;8.13;6.53;;;21.00;99.90;;;;;;5055140;28;20502;-78
2021/09/06 11:32:22;;;;;;;8.33;7.50;;;21.10;99.90;;;;;;5055251;28;20488;-78
2021/09/06 11:34:49;;;;;;;9.17;7.33;;;21.20;99.90;;;;;;5054813;28;20456;-78
2021/09/06 11:37:17;;;;;;;9.60;7.13;;;21.30;99.90;;;;;;5053587;28;20475;-78
2021/09/06 11:39:45;;;;;;;7.23;6.53;;;21.40;99.90;;;;;;5054824;28;20540;-78
2021/09/06 11:42:12;;;;;;;7.77;7.07;;;21.40;99.90;;;;;;5055270;28;20476;-79
2021/09/06 11:44:38;;;;;;;7.03;6.33;;;21.50;99.90;;;;;;5055197;28;20503;-79
2021/09/06 11:47:05;;;;;;;8.40;7.63;;;21.50;99.90;;;;;;5055085;28;20528;-78
2021/09/06 11:49:33;;;;;;;7.63;6.70;;;21.50;99.90;;;;;;5055275;28;20476;-78
2021/09/06 11:52:08;;;;;;;7.20;6.50;;;21.60;99.90;;;;;;5053735;28;20484;-78
2021/09/06 11:54:42;;;;;;;7.90;6.70;;;21.60;99.90;;;;;;5053983;28;20788;-80
2021/09/06 11:57:08;;;;;;;6.20;5.60;;;21.70;99.90;;;;;;5054512;28;20502;-78
2021/09/06 11:59:35;;;;;;;9.17;7.23;;;21.70;99.90;;;;;;5053862;28;20925;-78
2021/09/06 12:02:11;;;;;;;7.20;6.43;;;21.70;99.90;;;;;;5055361;28;20881;-78
2021/09/06 12:04:39;;;;;;;11.53;7.03;;;21.80;99.90;;;;;;5055178;28;20498;-79
2021/09/06 12:07:12;;;;;;;6.70;6.10;;;21.80;99.90;;;;;;5055329;28;20974;-79
2021/09/06 12:09:38;;;;;;;8.33;6.33;;;21.90;99.90;;;;;;5055452;28;20452;-79
2021/09/06 12:12:16;;;;;;;7.83;7.03;;;22.00;99.90;;;;;;5054998;28;20951;-78
2021/09/06 12:14:44;;;;;;;7.23;6.43;;;22.00;99.90;;;;;;5055024;28;20451;-79
2021/09/06 12:17:11;;;;;;;9.87;6.43;;;22.00;99.90;;;;;;5054693;28;20451;-79
2021/09/06 12:19:43;;;;;;;7.13;6.53;;;22.00;99.90;;;;;;5055177;28;20543;-79
2021/09/06 12:22:14;;;;;;;7.47;6.77;;;22.00;99.90;;;;;;5054812;28;20993;-79
2021/09/06 12:24:42;;;;;;;7.57;6.00;;;21.90;99.90;;;;;;5054648;28;20520;-81
2021/09/06 12:27:13;;;;;;;7.40;6.60;;;21.90;99.90;;;;;;5030267;28;20450;-79
2021/09/06 12:29:41;;;;;;;6.50;6.00;;;21.80;99.90;;;;;;5052524;28;20487;-80
2021/09/06 12:32:09;;;;;;;9.43;6.93;;;21.80;99.90;;;;;;5053422;28;20807;-80
2021/09/06 12:34:36;;;;;;;12.00;6.87;;;21.70;99.90;;;;;;5052671;28;20448;-80
2021/09/06 12:37:07;;;;;;;8.23;7.00;;;21.70;99.90;;;;;;5052391;28;20453;-80
2021/09/06 12:39:35;;;;;;;7.90;6.70;;;21.60;99.90;;;;;;5054213;28;20456;-81
2021/09/06 12:42:02;;;;;;;7.77;6.93;;;21.60;99.90;;;;;;5053172;28;20993;-82
2021/09/06 12:44:29;;;;;;;6.90;5.97;;;21.50;99.90;;;;;;5053448;28;20902;-81
2021/09/06 12:46:56;;;;;;;6.50;5.83;;;21.50;99.90;;;;;;5053486;28;20476;-82